Altach, Austria

7:40 AM CEST on September 19, 2019 (GMT +0200)
Muehlbach am Hochkoenig | | Change Station

Elev 2785 ft 47.38 °N, 13.13 °E | Updated 10 minutes ago

Mostly Cloudy
Mostly Cloudy
45.7 °F
Feels Like 46 °F
N
1
Wind Variable Wind from WSW
Gusts 4.0 mph

Today
High -- | Low -- °F
--% Chance of Precip.
Yesterday
High -- | Low -- °F
Precip. -- in
Pressure 30.30 in
Visibility 6.2 miles
Clouds Few 200 ft
Mostly Cloudy 30000 ft
Windchill 46 °F
Dew Point 42 °F
Humidity 86%
Rainfall 0.00 in
Snow Depth Not available.
6:49 AM 7:12 PM
Waning Gibbous, 78% visible
METAR LOWS 190520Z VRB01KT 9999 FEW002 BKN300 04/03 Q1026 NOSIG
Pressure 30.30 in
Visibility 6.2 miles
Clouds Few 200 ft
Mostly Cloudy 30000 ft
Windchill 46 °F
Dew Point 42 °F
Humidity 86%
Rainfall 0.00 in
Snow Depth Not available.
6:49 AM 7:12 PM
Waning Gibbous, 78% visible
METAR LOWS 190520Z VRB01KT 9999 FEW002 BKN300 04/03 Q1026 NOSIG

Get Severe Weather Alerts

Thanks for signing up!

Be on the lookout for a verification email in your inbox.

You'll start receiving the daily forecast at 6 AM.

×

10-Day Weather Forecast

×

Almanac

Astronomy

Sep. 19, 2019 Rise Set
Actual Time
Civil Twilight
Nautical Twilight
Astronomical Twilight
Moon
Length of Visible Light
Length of Day
Tomorrow will be .
, % of the Moon is Illuminated

Today's Extremes

Country Highs Country Lows

Community

WunderPhotos

Category 6

Welcome to Category 6. This is the collective home for Weather Underground's featured writeups by Dr. Jeff Masters (right), Bob Henson (left), Chris Burt, and other regular contributors.

Nearby

Air Quality

  Air Quality AQ Index Pollutant
Not available.

Snow Depth

Station Depth Elevation

Earthquake Activity

City Distance Mag. Time & Date
Minimum magnitude displayed is 2.5.

Coastal Water Temperatures

Place Temperature

Stations

Nearby Weather Stations

Station Location Temp. Windchill Dew Point Humidity Wind Precip. Elev Updated Type